createdAt,value
2023-05-16T00:01:59.054Z,27.63
2023-05-16T00:04:28.734Z,27.08
2023-05-16T00:06:58.178Z,30.80
2023-05-16T00:09:27.534Z,29.02
2023-05-16T00:11:57.432Z,29.55
2023-05-16T00:14:27.849Z,28.55
2023-05-16T00:17:02.204Z,31.05
2023-05-16T00:19:31.712Z,30.67
2023-05-16T00:22:01.503Z,27.00
2023-05-16T00:24:31.575Z,27.95
2023-05-16T00:27:00.780Z,27.98
2023-05-16T00:29:30.124Z,28.02
2023-05-16T00:32:00.707Z,28.35
2023-05-16T00:34:30.251Z,29.58
2023-05-16T00:37:00.037Z,27.92
2023-05-16T00:39:29.363Z,27.85
2023-05-16T00:41:58.914Z,28.58
2023-05-16T00:44:28.448Z,31.58
2023-05-16T00:46:59.467Z,29.48
2023-05-16T00:49:31.369Z,26.95
2023-05-16T00:52:01.687Z,29.88
2023-05-16T00:54:32.523Z,28.42
2023-05-16T00:57:02.215Z,30.20
2023-05-16T00:59:32.043Z,27.85
2023-05-16T01:02:02.123Z,29.10
2023-05-16T01:04:33.805Z,28.35
2023-05-16T01:07:03.933Z,28.30
2023-05-16T01:09:37.264Z,25.88
2023-05-16T01:12:21.685Z,28.45
2023-05-16T01:15:03.000Z,31.40
2023-05-16T01:17:53.454Z,28.92
2023-05-16T01:20:39.527Z,29.10
2023-05-16T01:23:40.256Z,29.60
2023-05-16T01:26:29.219Z,28.48
2023-05-16T01:28:58.915Z,26.23
2023-05-16T01:31:28.368Z,28.05
2023-05-16T01:33:57.743Z,27.60
2023-05-16T01:36:53.838Z,28.35
2023-05-16T01:40:11.185Z,28.02
2023-05-16T01:42:46.623Z,30.05
2023-05-16T01:45:28.912Z,26.63
2023-05-16T01:48:34.382Z,26.35
2023-05-16T01:51:06.131Z,28.00
2023-05-16T01:53:40.610Z,25.38
2023-05-16T01:56:15.558Z,25.60
2023-05-16T01:58:48.500Z,24.77
2023-05-16T02:01:18.103Z,28.65
2023-05-16T02:03:47.625Z,24.98
2023-05-16T02:06:17.029Z,25.98
2023-05-16T02:08:46.411Z,23.27
2023-05-16T02:11:15.444Z,22.75
2023-05-16T02:13:46.107Z,22.83
2023-05-16T02:16:15.470Z,20.38
2023-05-16T02:18:46.419Z,21.98
2023-05-16T02:21:16.230Z,22.75
2023-05-16T02:23:46.074Z,21.10
2023-05-16T02:26:15.052Z,21.45
2023-05-16T02:28:44.402Z,19.08
2023-05-16T02:31:13.796Z,20.63
2023-05-16T02:33:43.456Z,21.05
2023-05-16T02:36:12.732Z,20.23
2023-05-16T02:38:44.884Z,21.00
2023-05-16T02:41:14.408Z,22.73
2023-05-16T02:43:46.870Z,18.52
2023-05-16T02:46:26.637Z,24.30
2023-05-16T02:48:57.109Z,21.08
2023-05-16T02:51:28.080Z,19.95
2023-05-16T02:54:03.962Z,18.13
2023-05-16T02:56:33.401Z,19.73
2023-05-16T02:59:02.688Z,20.92
2023-05-16T03:01:32.909Z,19.15
2023-05-16T03:04:02.660Z,19.52
2023-05-16T03:06:32.606Z,21.05
2023-05-16T03:09:01.769Z,18.17
2023-05-16T03:11:31.097Z,18.17
2023-05-16T03:14:01.924Z,20.17
2023-05-16T03:16:31.745Z,20.73
2023-05-16T03:19:00.904Z,23.17
2023-05-16T03:21:30.181Z,20.27
2023-05-16T03:23:59.854Z,20.90
2023-05-16T03:26:29.724Z,22.33
2023-05-16T03:28:58.856Z,20.55
2023-05-16T03:31:28.347Z,21.10
2023-05-16T03:33:58.175Z,19.38
2023-05-16T03:36:28.574Z,19.85
2023-05-16T03:38:57.962Z,21.27
2023-05-16T03:41:27.490Z,21.00
2023-05-16T03:43:56.538Z,23.40
2023-05-16T03:46:26.374Z,21.75
2023-05-16T03:48:55.655Z,21.67
2023-05-16T03:51:24.886Z,22.10
2023-05-16T03:53:54.154Z,21.45
2023-05-16T03:56:23.839Z,22.60
2023-05-16T03:58:53.202Z,22.40
2023-05-16T04:01:22.407Z,22.60
2023-05-16T04:03:52.230Z,22.15
2023-05-16T04:06:22.382Z,24.40
2023-05-16T04:08:52.510Z,21.83
2023-05-16T04:11:22.496Z,21.38
2023-05-16T04:13:52.702Z,22.70
2023-05-16T04:16:22.121Z,20.05
2023-05-16T04:18:51.358Z,18.65
2023-05-16T04:21:20.856Z,15.93
2023-05-16T04:23:50.170Z,15.98
2023-05-16T04:26:19.626Z,15.80
2023-05-16T04:28:48.863Z,14.27
2023-05-16T04:31:18.464Z,15.75
2023-05-16T04:33:48.131Z,14.98
2023-05-16T04:36:17.513Z,15.65
2023-05-16T04:38:48.221Z,14.68
2023-05-16T04:41:17.946Z,15.95
2023-05-16T04:43:47.310Z,18.10
2023-05-16T04:46:18.607Z,18.17
2023-05-16T04:48:48.327Z,19.63
2023-05-16T04:51:17.754Z,19.27
2023-05-16T04:53:47.151Z,19.50
2023-05-16T04:56:16.654Z,19.98
2023-05-16T04:58:46.148Z,18.45
2023-05-16T05:01:15.573Z,18.33
2023-05-16T05:03:48.123Z,15.63
2023-05-16T05:06:17.756Z,16.45
2023-05-16T05:08:46.992Z,16.00
2023-05-16T05:11:16.696Z,15.68
2023-05-16T05:13:47.044Z,14.38
2023-05-16T05:16:16.261Z,15.93
2023-05-16T05:18:45.821Z,15.82
2023-05-16T05:21:15.309Z,15.95
2023-05-16T05:23:45.133Z,16.80
2023-05-16T05:26:14.401Z,15.93
2023-05-16T05:28:47.865Z,16.00
2023-05-16T05:31:20.254Z,16.20
2023-05-16T05:33:49.755Z,16.30
2023-05-16T05:36:19.064Z,16.55
2023-05-16T05:38:48.609Z,15.18
2023-05-16T05:41:17.951Z,15.02
2023-05-16T05:43:47.341Z,13.35
2023-05-16T05:46:18.192Z,14.77
2023-05-16T05:48:48.207Z,12.50
2023-05-16T05:51:17.526Z,12.63
2023-05-16T05:53:46.936Z,11.93
2023-05-16T05:56:16.119Z,10.88
2023-05-16T05:58:45.495Z,10.75
2023-05-16T06:01:14.919Z,10.68
2023-05-16T06:03:44.999Z,11.05
2023-05-16T06:06:16.180Z,10.90
2023-05-16T06:08:45.399Z,10.27
2023-05-16T06:11:15.424Z,11.43
2023-05-16T06:13:44.579Z,11.70
2023-05-16T06:16:14.167Z,12.80
2023-05-16T06:18:43.693Z,12.43
2023-05-16T06:21:13.073Z,11.68
2023-05-16T06:23:42.306Z,11.88
2023-05-16T06:26:11.621Z,10.30
2023-05-16T06:28:41.304Z,10.25
2023-05-16T06:31:10.804Z,10.15
2023-05-16T06:33:40.226Z,9.88
2023-05-16T06:36:09.635Z,9.48
2023-05-16T06:38:38.981Z,9.30
2023-05-16T06:41:07.990Z,9.25
2023-05-16T06:43:37.873Z,9.73
2023-05-16T06:46:07.350Z,9.75
2023-05-16T06:48:37.370Z,10.95
2023-05-16T06:51:06.833Z,10.23
2023-05-16T06:53:36.618Z,8.82
2023-05-16T06:56:06.558Z,9.32
2023-05-16T06:58:35.940Z,9.77
2023-05-16T07:01:05.297Z,8.35
2023-05-16T07:03:34.978Z,9.48
2023-05-16T07:06:04.670Z,8.35
2023-05-16T07:08:39.924Z,8.40
2023-05-16T07:11:23.667Z,8.68
2023-05-16T07:13:53.108Z,8.52
2023-05-16T07:16:22.816Z,8.30
2023-05-16T07:18:53.466Z,8.60
2023-05-16T07:21:23.598Z,8.55
2023-05-16T07:23:53.064Z,9.23
2023-05-16T07:26:24.473Z,8.98
2023-05-16T07:28:54.017Z,8.73
2023-05-16T07:31:25.447Z,9.45
2023-05-16T07:33:55.431Z,9.57
2023-05-16T07:36:25.929Z,9.00
2023-05-16T07:38:55.459Z,7.65
2023-05-16T07:41:26.757Z,8.32
2023-05-16T07:43:56.082Z,7.80
2023-05-16T07:46:25.505Z,8.35
2023-05-16T07:48:55.009Z,8.27
2023-05-16T07:51:24.381Z,7.85
2023-05-16T07:53:54.627Z,7.80
2023-05-16T07:56:24.779Z,8.27
2023-05-16T07:58:54.699Z,7.80
2023-05-16T08:01:24.213Z,9.07
2023-05-16T08:03:54.854Z,8.30
2023-05-16T08:06:24.811Z,8.13
2023-05-16T08:08:55.024Z,8.90
2023-05-16T08:11:24.310Z,8.63
2023-05-16T08:13:53.770Z,9.63
2023-05-16T08:16:23.863Z,9.80
2023-05-16T08:18:53.252Z,9.00
2023-05-16T08:21:23.432Z,9.77
2023-05-16T08:23:52.903Z,9.02
2023-05-16T08:26:23.299Z,8.68
2023-05-16T08:28:53.628Z,7.80
2023-05-16T08:31:23.210Z,7.22
2023-05-16T08:33:52.933Z,8.55
2023-05-16T08:36:22.228Z,7.28
2023-05-16T08:38:52.391Z,7.25
2023-05-16T08:41:23.157Z,7.13
2023-05-16T08:43:53.786Z,6.53
2023-05-16T08:46:25.260Z,6.45
2023-05-16T08:48:55.520Z,6.80
2023-05-16T08:51:28.725Z,6.82
2023-05-16T08:54:12.872Z,6.85
2023-05-16T08:56:46.846Z,6.25
2023-05-16T08:59:16.916Z,6.68
2023-05-16T09:01:46.778Z,6.57
2023-05-16T09:04:17.632Z,6.25
2023-05-16T09:06:47.525Z,6.68
2023-05-16T09:09:16.969Z,6.63
2023-05-16T09:11:46.965Z,6.43
2023-05-16T09:14:16.251Z,7.03
2023-05-16T09:16:47.958Z,6.53
2023-05-16T09:19:17.744Z,6.93
2023-05-16T09:21:47.571Z,7.50
2023-05-16T09:24:17.051Z,6.88
2023-05-16T09:26:46.836Z,6.88
2023-05-16T09:29:16.220Z,6.50
2023-05-16T09:31:45.817Z,6.10
2023-05-16T09:34:15.474Z,6.25
2023-05-16T09:36:45.281Z,5.85
2023-05-16T09:39:17.766Z,5.38
2023-05-16T09:41:47.473Z,6.00
2023-05-16T09:44:19.542Z,5.47
2023-05-16T09:46:49.939Z,6.45
2023-05-16T09:49:19.582Z,7.38
2023-05-16T09:51:49.861Z,8.57
2023-05-16T09:54:31.965Z,8.80
2023-05-16T09:57:03.177Z,8.60
2023-05-16T09:59:37.247Z,7.93
2023-05-16T10:02:09.319Z,7.50
2023-05-16T10:04:39.590Z,7.68
2023-05-16T10:07:11.068Z,7.43
2023-05-16T10:09:42.624Z,7.15
2023-05-16T10:12:14.756Z,7.13
2023-05-16T10:14:48.019Z,7.95
2023-05-16T10:17:18.735Z,7.25
2023-05-16T10:19:49.368Z,6.45
2023-05-16T10:22:21.446Z,6.03
2023-05-16T10:25:10.566Z,5.90
2023-05-16T10:27:42.339Z,6.35
2023-05-16T10:30:13.887Z,5.57
2023-05-16T10:32:44.039Z,7.38
2023-05-16T10:35:14.498Z,6.03
2023-05-16T10:37:45.379Z,5.78
2023-05-16T10:40:15.860Z,5.80
2023-05-16T10:43:02.751Z,4.53
2023-05-16T10:45:33.116Z,5.50
2023-05-16T10:48:06.951Z,4.65
2023-05-16T10:50:45.334Z,5.05
2023-05-16T10:53:37.962Z,5.20
2023-05-16T10:56:12.082Z,7.45
2023-05-16T10:58:46.136Z,5.22
2023-05-16T11:01:31.426Z,5.63
2023-05-16T11:04:01.969Z,6.30
2023-05-16T11:06:43.842Z,5.70
2023-05-16T11:09:18.989Z,4.60
2023-05-16T11:11:55.851Z,4.65
2023-05-16T11:14:26.517Z,5.13
2023-05-16T11:17:22.450Z,4.90
2023-05-16T11:19:53.232Z,5.60
2023-05-16T11:22:35.694Z,5.47
2023-05-16T11:25:15.071Z,4.75
2023-05-16T11:27:49.383Z,6.18
2023-05-16T11:30:21.163Z,4.63
2023-05-16T11:32:51.593Z,5.07
2023-05-16T11:35:21.302Z,4.88
2023-05-16T11:37:51.677Z,5.10
2023-05-16T11:40:21.190Z,5.30
2023-05-16T11:42:51.406Z,5.57
2023-05-16T11:45:24.009Z,4.55
2023-05-16T11:47:54.011Z,4.70
2023-05-16T11:50:24.958Z,4.55
2023-05-16T11:52:58.160Z,6.43
2023-05-16T11:55:41.083Z,6.20
2023-05-16T11:58:13.609Z,5.88
2023-05-16T12:00:51.180Z,7.05
2023-05-16T12:03:25.320Z,5.72
2023-05-16T12:05:56.389Z,5.32
2023-05-16T12:08:26.889Z,5.22
2023-05-16T12:10:57.547Z,5.30
2023-05-16T12:13:27.890Z,4.85
2023-05-16T12:15:57.768Z,4.45
2023-05-16T12:18:28.314Z,5.18
2023-05-16T12:20:58.380Z,4.80
2023-05-16T12:23:30.426Z,4.78
2023-05-16T12:26:02.825Z,4.22
2023-05-16T12:28:36.573Z,4.32
2023-05-16T12:31:26.628Z,4.13
2023-05-16T12:34:00.916Z,4.30
2023-05-16T12:36:38.998Z,5.13
2023-05-16T12:39:09.442Z,10.02
2023-05-16T12:41:46.006Z,17.45
2023-05-16T12:44:20.560Z,16.50
2023-05-16T12:46:54.874Z,15.57
2023-05-16T12:49:24.284Z,8.90
2023-05-16T12:52:00.226Z,9.93
2023-05-16T12:54:30.035Z,8.65
2023-05-16T12:56:59.191Z,8.27
2023-05-16T12:59:30.573Z,7.70
2023-05-16T13:02:00.633Z,6.65
2023-05-16T13:04:30.585Z,7.75
2023-05-16T13:07:00.429Z,7.40
2023-05-16T13:09:32.716Z,8.05
2023-05-16T13:12:02.605Z,9.02
2023-05-16T13:14:31.942Z,8.48
2023-05-16T13:17:03.509Z,9.20
2023-05-16T13:19:36.105Z,9.13
2023-05-16T13:22:05.636Z,8.52
2023-05-16T13:24:35.370Z,7.68
2023-05-16T13:27:04.944Z,8.30
2023-05-16T13:29:34.325Z,8.05
2023-05-16T13:32:04.682Z,7.32
2023-05-16T13:34:34.759Z,7.65
2023-05-16T13:37:05.168Z,7.93
2023-05-16T13:39:34.455Z,7.40
2023-05-16T13:42:05.001Z,7.97
2023-05-16T13:44:34.587Z,7.35
2023-05-16T13:47:05.043Z,7.68
2023-05-16T13:49:34.269Z,7.97
2023-05-16T13:52:03.890Z,7.60
2023-05-16T13:54:35.102Z,8.07
2023-05-16T13:57:05.149Z,8.63
2023-05-16T14:02:08.252Z,8.60
2023-05-16T14:04:37.544Z,8.85
2023-05-16T14:07:06.936Z,7.82
2023-05-16T14:09:40.146Z,8.45
2023-05-16T14:12:11.236Z,9.23
2023-05-16T14:14:41.126Z,9.27
2023-05-16T14:17:10.331Z,11.02
2023-05-16T14:19:39.818Z,11.02
2023-05-16T14:22:09.306Z,9.95
2023-05-16T14:24:38.553Z,10.75
2023-05-16T14:27:08.584Z,10.43
2023-05-16T14:29:38.198Z,12.10
2023-05-16T14:32:08.123Z,13.35
2023-05-16T14:34:37.539Z,13.68
2023-05-16T14:37:07.476Z,14.20
2023-05-16T14:39:37.329Z,14.02
2023-05-16T14:42:08.859Z,14.45
2023-05-16T14:44:38.790Z,14.80
2023-05-16T14:47:08.743Z,13.85
2023-05-16T14:49:38.322Z,12.77
2023-05-16T14:52:08.883Z,12.63
2023-05-16T14:54:38.568Z,15.07
2023-05-16T14:57:12.991Z,12.88
2023-05-16T14:59:42.499Z,13.30
2023-05-16T15:02:12.338Z,13.45
2023-05-16T15:04:42.675Z,13.02
2023-05-16T15:07:12.460Z,13.82
2023-05-16T15:09:42.129Z,14.15
2023-05-16T15:12:11.918Z,12.10
2023-05-16T15:14:41.604Z,13.82
2023-05-16T15:17:11.454Z,14.90
2023-05-16T15:19:42.713Z,15.80
2023-05-16T15:22:13.023Z,16.02
2023-05-16T15:24:43.880Z,15.90
2023-05-16T15:27:14.471Z,15.27
2023-05-16T15:29:44.503Z,15.30
2023-05-16T15:32:15.471Z,18.02
2023-05-16T15:34:45.834Z,20.45
2023-05-16T15:37:15.774Z,22.20
2023-05-16T15:39:45.938Z,22.33
2023-05-16T15:42:16.343Z,21.42
2023-05-16T15:44:45.979Z,23.02
2023-05-16T15:47:16.146Z,21.73
2023-05-16T15:49:45.996Z,21.83
2023-05-16T15:52:16.039Z,20.90
2023-05-16T15:54:46.088Z,19.85
2023-05-16T15:57:16.006Z,18.98
2023-05-16T15:59:46.044Z,17.33
2023-05-16T16:02:15.436Z,16.42
2023-05-16T16:04:45.510Z,16.75
2023-05-16T16:07:15.907Z,17.45
2023-05-16T16:09:47.405Z,14.95
2023-05-16T16:12:17.602Z,16.30
2023-05-16T16:14:50.395Z,15.13
2023-05-16T16:17:20.405Z,15.77
2023-05-16T16:19:55.317Z,15.30
2023-05-16T16:22:25.058Z,16.65
2023-05-16T16:24:56.254Z,15.90
2023-05-16T16:27:26.884Z,16.80
2023-05-16T16:29:57.501Z,17.42
2023-05-16T16:32:27.175Z,18.30
2023-05-16T16:34:57.682Z,18.65
2023-05-16T16:37:27.953Z,19.00
2023-05-16T16:39:58.746Z,18.65
2023-05-16T16:42:31.614Z,18.27
2023-05-16T16:45:01.447Z,18.83
2023-05-16T16:47:31.225Z,18.70
2023-05-16T16:50:02.765Z,18.10
2023-05-16T16:52:33.321Z,18.95
2023-05-16T16:55:04.377Z,19.67
2023-05-16T16:57:35.056Z,18.88
2023-05-16T17:00:08.637Z,19.23
2023-05-16T17:02:44.279Z,18.60
2023-05-16T17:05:15.056Z,18.70
2023-05-16T17:07:45.606Z,18.63
2023-05-16T17:10:18.777Z,20.35
2023-05-16T17:12:51.147Z,20.17
2023-05-16T17:15:22.056Z,17.60
2023-05-16T17:17:53.319Z,19.42
2023-05-16T17:20:24.255Z,19.38
2023-05-16T17:22:54.931Z,17.67
2023-05-16T17:25:26.757Z,17.40
2023-05-16T17:27:59.812Z,17.42
2023-05-16T17:33:01.121Z,17.13
2023-05-16T17:35:32.760Z,17.70
2023-05-16T17:38:05.041Z,17.50
2023-05-16T17:40:39.242Z,16.20
2023-05-16T17:43:09.827Z,17.38
2023-05-16T17:45:43.160Z,17.20
2023-05-16T17:48:14.099Z,17.13
2023-05-16T17:50:45.575Z,17.10
2023-05-16T17:53:16.555Z,16.70
2023-05-16T17:55:48.515Z,18.20
2023-05-16T17:58:20.448Z,18.58
2023-05-16T18:00:52.322Z,18.52
2023-05-16T18:03:23.830Z,18.17
2023-05-16T18:05:56.513Z,17.55
2023-05-16T18:08:30.694Z,18.98
2023-05-16T18:11:02.682Z,17.50
2023-05-16T18:13:34.917Z,18.05
2023-05-16T18:16:06.810Z,18.45
2023-05-16T18:18:39.509Z,17.58
2023-05-16T18:21:12.177Z,18.98
2023-05-16T18:23:44.164Z,18.13
2023-05-16T18:26:14.303Z,19.08
2023-05-16T18:28:45.556Z,18.50
2023-05-16T18:31:17.017Z,18.33
2023-05-16T18:33:47.817Z,17.92
2023-05-16T18:36:18.878Z,18.92
2023-05-16T18:38:50.202Z,18.00
2023-05-16T18:41:20.035Z,17.95
2023-05-16T18:43:51.368Z,18.05
2023-05-16T18:46:21.918Z,18.52
2023-05-16T18:48:52.172Z,17.95
2023-05-16T18:51:22.944Z,19.00
2023-05-16T18:53:54.223Z,19.63
2023-05-16T18:56:24.896Z,18.90
2023-05-16T18:58:55.500Z,18.92
2023-05-16T19:01:26.733Z,17.70
2023-05-16T19:03:57.668Z,19.23
2023-05-16T19:06:28.039Z,19.40
2023-05-16T19:08:58.400Z,17.58
2023-05-16T19:11:29.461Z,18.70
2023-05-16T19:14:01.331Z,17.52
2023-05-16T19:16:31.677Z,17.88
2023-05-16T19:19:04.204Z,18.55
2023-05-16T19:21:33.887Z,17.65
2023-05-16T19:24:04.852Z,17.63
2023-05-16T19:26:34.790Z,17.75
2023-05-16T19:29:05.558Z,17.17
2023-05-16T19:31:35.488Z,17.55
2023-05-16T19:34:05.926Z,16.88
2023-05-16T19:36:36.138Z,17.40
2023-05-16T19:39:06.013Z,16.73
2023-05-16T19:41:35.673Z,16.75
2023-05-16T19:44:06.312Z,17.40
2023-05-16T19:46:35.898Z,16.40
2023-05-16T19:49:06.235Z,16.85
2023-05-16T19:51:42.057Z,17.95
2023-05-16T19:54:12.720Z,18.60
2023-05-16T19:56:42.254Z,18.13
2023-05-16T19:59:12.038Z,17.42
2023-05-16T20:04:15.928Z,17.75
2023-05-16T20:06:45.330Z,17.60
2023-05-16T20:09:15.814Z,18.10
2023-05-16T20:11:45.542Z,17.55
2023-05-16T20:14:15.345Z,17.05
2023-05-16T20:16:44.734Z,18.58
2023-05-16T20:19:16.216Z,16.85
2023-05-16T20:21:46.259Z,18.23
2023-05-16T20:24:16.714Z,16.88
2023-05-16T20:26:46.255Z,18.90
2023-05-16T20:29:15.742Z,17.73
2023-05-16T20:31:45.335Z,17.77
2023-05-16T20:34:14.990Z,17.27
2023-05-16T20:36:44.754Z,16.95
2023-05-16T20:39:14.363Z,16.95
2023-05-16T20:41:43.790Z,17.33
2023-05-16T20:44:13.182Z,16.25
2023-05-16T20:46:43.196Z,17.90
2023-05-16T20:49:13.044Z,17.70
2023-05-16T20:51:42.191Z,16.98
2023-05-16T20:54:12.811Z,17.95
2023-05-16T20:56:42.030Z,18.15
2023-05-16T20:59:11.406Z,17.15
2023-05-16T21:01:40.878Z,18.05
2023-05-16T21:04:10.468Z,18.17
2023-05-16T21:06:39.873Z,18.98
2023-05-16T21:09:09.194Z,17.83
2023-05-16T21:11:38.539Z,19.85
2023-05-16T21:14:08.074Z,22.58
2023-05-16T21:16:37.646Z,26.25
2023-05-16T21:19:07.002Z,29.58
2023-05-16T21:21:36.541Z,30.60
2023-05-16T21:24:06.928Z,34.22
2023-05-16T21:26:35.947Z,35.05
2023-05-16T21:29:05.232Z,35.35
2023-05-16T21:31:35.072Z,36.65
2023-05-16T21:34:04.600Z,37.90
2023-05-16T21:36:34.474Z,40.83
2023-05-16T21:39:04.710Z,40.35
2023-05-16T21:41:34.038Z,41.95
2023-05-16T21:44:03.182Z,40.17
2023-05-16T21:46:32.289Z,41.45
2023-05-16T21:49:01.816Z,39.67
2023-05-16T21:51:31.659Z,42.53
2023-05-16T21:54:01.128Z,42.33
2023-05-16T21:56:31.092Z,39.55
2023-05-16T21:59:00.298Z,39.38
2023-05-16T22:01:30.575Z,36.85
2023-05-16T22:04:00.283Z,37.35
2023-05-16T22:06:29.892Z,36.50
2023-05-16T22:08:59.551Z,34.92
2023-05-16T22:11:29.077Z,32.92
2023-05-16T22:13:58.242Z,30.52
2023-05-16T22:16:27.851Z,29.10
2023-05-16T22:18:57.070Z,28.13
2023-05-16T22:21:26.441Z,28.23
2023-05-16T22:23:55.640Z,26.25
2023-05-16T22:26:24.947Z,26.92
2023-05-16T22:28:54.463Z,27.13
2023-05-16T22:31:23.813Z,27.60
2023-05-16T22:33:53.245Z,28.00
2023-05-16T22:36:23.220Z,30.85
2023-05-16T22:38:52.898Z,31.10
2023-05-16T22:41:22.353Z,33.03
2023-05-16T22:43:52.089Z,34.08
2023-05-16T22:46:21.110Z,34.90
2023-05-16T22:48:50.405Z,34.60
2023-05-16T22:51:19.883Z,33.58
2023-05-16T22:53:49.370Z,32.10
2023-05-16T22:56:18.541Z,29.83
2023-05-16T22:58:48.190Z,26.00
2023-05-16T23:01:19.112Z,23.73
2023-05-16T23:03:48.269Z,21.05
2023-05-16T23:06:18.093Z,18.55
2023-05-16T23:08:47.302Z,17.13
2023-05-16T23:11:16.640Z,15.00
2023-05-16T23:13:47.348Z,14.27
2023-05-16T23:16:17.329Z,13.32
2023-05-16T23:18:47.011Z,12.88
2023-05-16T23:21:16.298Z,11.82
2023-05-16T23:23:46.032Z,10.80
2023-05-16T23:26:15.068Z,10.77
2023-05-16T23:28:44.476Z,10.73
2023-05-16T23:31:13.748Z,11.65
2023-05-16T23:33:43.105Z,11.23
2023-05-16T23:36:12.200Z,11.10
2023-05-16T23:38:41.643Z,12.55
2023-05-16T23:41:10.851Z,12.32
2023-05-16T23:43:40.235Z,12.35
2023-05-16T23:46:09.809Z,13.40
2023-05-16T23:48:39.724Z,12.85
2023-05-16T23:51:09.532Z,13.48
2023-05-16T23:53:38.549Z,13.48
2023-05-16T23:56:08.021Z,14.30
2023-05-16T23:58:37.136Z,14.60
